Time;durP1;ratioP1;P1;durP2;ratioP2;P2;SDS_P1;SDS_P2;PMS_P1;PMS_P2;Temp;Humidity;BMP_temperature;BMP_pressure;BME280_temperature;BME280_humidity;BME280_pressure;Samples;Min_cycle;Max_cycle;Signal;HPM_P1;HPM_P2
2023/01/04 00:00:21;;;;;;;0.30;0.30;;;3.60;99.90;;;;;;5012582;28;20186;-69
2023/01/04 00:02:46;;;;;;;0.20;0.20;;;3.50;99.90;;;;;;4995741;28;20207;-69
2023/01/04 00:05:12;;;;;;;0.00;0.00;;;3.50;99.90;;;;;;4994655;28;20187;-69
2023/01/04 00:07:38;;;;;;;0.00;0.00;;;3.50;99.90;;;;;;5011290;28;20199;-68
2023/01/04 00:10:03;;;;;;;0.13;0.13;;;3.40;99.90;;;;;;5012047;28;20180;-69
2023/01/04 00:12:29;;;;;;;0.00;0.00;;;3.40;99.90;;;;;;5011825;28;20237;-68
2023/01/04 00:14:54;;;;;;;0.00;0.00;;;3.40;99.90;;;;;;5011419;28;20191;-68
2023/01/04 00:17:20;;;;;;;0.00;0.00;;;3.40;99.90;;;;;;4992762;28;20630;-68
2023/01/04 00:19:45;;;;;;;0.00;0.00;;;3.40;99.90;;;;;;4996104;28;20563;-68
2023/01/04 00:22:11;;;;;;;0.00;0.00;;;3.40;99.90;;;;;;5011586;28;20656;-68
2023/01/04 00:24:37;;;;;;;0.00;0.00;;;3.40;99.90;;;;;;5010033;28;20182;-67
2023/01/04 00:27:02;;;;;;;0.32;0.32;;;3.30;99.90;;;;;;5011860;28;20174;-68
2023/01/04 00:29:28;;;;;;;0.47;0.47;;;3.30;99.90;;;;;;5011368;28;20265;-68
2023/01/04 00:31:53;;;;;;;0.10;0.10;;;3.40;99.90;;;;;;5012252;28;20175;-68
2023/01/04 00:34:19;;;;;;;0.22;0.22;;;3.40;99.90;;;;;;5011232;28;20301;-68
2023/01/04 00:36:44;;;;;;;0.00;0.00;;;3.30;99.90;;;;;;5011561;28;20241;-68
2023/01/04 00:39:14;;;;;;;0.00;0.00;;;3.30;99.90;;;;;;5012140;28;20183;-68
2023/01/04 00:41:42;;;;;;;0.00;0.00;;;3.30;99.90;;;;;;5008196;28;20619;-68
2023/01/04 00:44:08;;;;;;;0.00;0.00;;;3.30;99.90;;;;;;4992601;28;20198;-68
2023/01/04 00:46:35;;;;;;;0.08;0.08;;;3.20;99.90;;;;;;4992858;28;20191;-68
2023/01/04 00:49:01;;;;;;;0.10;0.10;;;3.20;99.90;;;;;;4992388;28;20615;-68
2023/01/04 00:51:29;;;;;;;0.00;0.00;;;3.20;99.90;;;;;;5008416;28;20222;-68
2023/01/04 00:53:54;;;;;;;0.00;0.00;;;3.20;99.90;;;;;;5011983;28;20268;-68
2023/01/04 00:56:20;;;;;;;0.10;0.10;;;3.20;99.90;;;;;;5006205;28;20218;-69
2023/01/04 00:58:46;;;;;;;0.00;0.00;;;3.10;99.90;;;;;;5011610;28;20211;-69
2023/01/04 01:01:11;;;;;;;0.00;0.00;;;3.10;99.90;;;;;;5011831;28;20288;-69
2023/01/04 01:03:37;;;;;;;0.00;0.00;;;3.00;99.90;;;;;;5011728;28;20524;-69
2023/01/04 01:06:04;;;;;;;0.00;0.00;;;3.00;99.90;;;;;;5011714;28;20187;-69
2023/01/04 01:08:32;;;;;;;0.00;0.00;;;3.00;99.90;;;;;;5012100;28;20236;-68
2023/01/04 01:11:03;;;;;;;0.00;0.00;;;3.00;99.90;;;;;;5011815;28;20185;-68
2023/01/04 01:13:28;;;;;;;0.25;0.25;;;3.00;99.90;;;;;;5011940;28;20179;-67
2023/01/04 01:15:54;;;;;;;0.98;0.40;;;3.00;99.90;;;;;;5011671;28;20546;-68
2023/01/04 01:18:20;;;;;;;0.00;0.00;;;2.90;99.90;;;;;;5011469;28;20608;-68
2023/01/04 01:20:46;;;;;;;0.25;0.25;;;2.90;99.90;;;;;;5018190;28;20198;-69
2023/01/04 01:23:13;;;;;;;0.00;0.00;;;2.90;99.90;;;;;;5000601;28;20186;-69
2023/01/04 01:25:39;;;;;;;0.00;0.00;;;2.90;99.90;;;;;;5017954;28;20182;-68
2023/01/04 01:28:05;;;;;;;0.00;0.00;;;2.80;99.90;;;;;;5018185;28;20749;-69
2023/01/04 01:30:31;;;;;;;0.00;0.00;;;2.80;99.90;;;;;;5018078;28;20265;-68
2023/01/04 01:32:56;;;;;;;0.00;0.00;;;2.80;99.90;;;;;;5018290;28;20170;-68
2023/01/04 01:35:22;;;;;;;0.22;0.22;;;2.80;99.90;;;;;;5017814;28;20594;-68
2023/01/04 01:37:47;;;;;;;0.00;0.00;;;2.80;99.90;;;;;;5018662;28;20669;-68
2023/01/04 01:40:13;;;;;;;0.00;0.00;;;2.70;99.90;;;;;;5018018;28;20229;-69
2023/01/04 01:42:38;;;;;;;0.00;0.00;;;2.70;99.90;;;;;;5017886;28;20182;-68
2023/01/04 01:45:10;;;;;;;0.57;0.50;;;2.70;99.90;;;;;;5017959;28;20257;-68
2023/01/04 01:47:44;;;;;;;0.00;0.00;;;2.70;99.90;;;;;;5018014;28;20719;-68
2023/01/04 01:50:28;;;;;;;1.00;0.63;;;2.70;99.90;;;;;;5000483;28;20189;-68
2023/01/04 01:52:56;;;;;;;0.00;0.00;;;2.60;99.90;;;;;;5017802;28;20681;-69
2023/01/04 01:55:22;;;;;;;0.52;0.30;;;2.60;99.90;;;;;;5017786;28;20240;-68
2023/01/04 01:57:49;;;;;;;0.00;0.00;;;2.50;99.90;;;;;;4987477;28;20231;-68
2023/01/04 02:00:15;;;;;;;1.05;1.00;;;2.50;99.90;;;;;;4999761;28;20214;-69
2023/01/04 02:03:12;;;;;;;0.17;0.15;;;2.40;99.90;;;;;;5021256;28;20187;-69
2023/01/04 02:05:38;;;;;;;0.00;0.00;;;2.40;99.90;;;;;;5000014;28;20186;-69
2023/01/04 02:08:04;;;;;;;0.00;0.00;;;2.40;99.90;;;;;;5018437;28;20180;-69
2023/01/04 02:10:30;;;;;;;0.20;0.20;;;2.40;99.90;;;;;;5008580;28;20193;-68
2023/01/04 02:12:57;;;;;;;0.10;0.10;;;2.40;99.90;;;;;;5000055;28;20211;-68
2023/01/04 02:15:27;;;;;;;0.20;0.20;;;2.40;99.90;;;;;;5017614;28;20858;-68
2023/01/04 02:18:10;;;;;;;0.30;0.30;;;2.40;99.90;;;;;;5017952;28;20214;-69
2023/01/04 02:21:15;;;;;;;0.00;0.00;;;2.40;99.90;;;;;;5017518;28;20170;-69
2023/01/04 02:23:52;;;;;;;0.00;0.00;;;2.40;99.90;;;;;;5006740;28;20217;-69
2023/01/04 02:26:45;;;;;;;0.00;0.00;;;2.40;99.90;;;;;;5017579;28;20174;-69
2023/01/04 02:29:55;;;;;;;0.00;0.00;;;2.40;99.90;;;;;;5017972;28;20187;-69
2023/01/04 02:32:31;;;;;;;0.10;0.10;;;2.40;99.90;;;;;;4994240;28;20183;-69
2023/01/04 02:35:01;;;;;;;0.00;0.00;;;2.40;99.90;;;;;;5002778;28;20349;-69
2023/01/04 02:37:54;;;;;;;0.00;0.00;;;2.40;99.90;;;;;;5014410;28;20214;-68
2023/01/04 02:40:30;;;;;;;0.00;0.00;;;2.40;99.90;;;;;;5014191;28;20249;-68
2023/01/04 02:46:34;;;;;;;0.57;0.57;;;2.40;99.90;;;;;;5014775;28;20182;-68
2023/01/04 02:51:45;;;;;;;0.00;0.00;;;2.30;99.90;;;;;;5014442;28;20189;-68
2023/01/04 02:54:37;;;;;;;0.00;0.00;;;2.30;99.90;;;;;;5013754;28;20226;-68
2023/01/04 02:57:26;;;;;;;0.00;0.00;;;2.30;99.90;;;;;;4993441;28;20311;-69
2023/01/04 03:00:15;;;;;;;0.00;0.00;;;2.30;99.90;;;;;;5012601;28;20278;-68
2023/01/04 03:06:16;;;;;;;0.00;0.00;;;2.30;99.90;;;;;;5013655;28;20240;-69
2023/01/04 03:09:17;;;;;;;0.00;0.00;;;2.30;99.90;;;;;;5013592;28;20178;-69
2023/01/04 03:12:37;;;;;;;0.00;0.00;;;2.30;99.90;;;;;;5012615;28;20197;-67
2023/01/04 03:14:50;;;;;;;0.35;0.35;;;2.30;99.90;;;;;;5007142;28;20194;-68
2023/01/04 03:17:20;;;;;;;0.00;0.00;;;2.20;99.90;;;;;;5013644;28;20213;-68
2023/01/04 03:19:50;;;;;;;0.00;0.00;;;2.20;99.90;;;;;;5013146;28;20194;-68
2023/01/04 03:36:42;;;;;;;0.00;0.00;;;2.50;99.90;;;;;;5013292;28;20740;-68
2023/01/04 03:48:33;;;;;;;0.00;0.00;;;2.50;99.90;;;;;;5005678;28;20194;-67
2023/01/04 03:51:21;;;;;;;0.20;0.20;;;2.50;99.90;;;;;;5012474;28;20587;-68
2023/01/04 03:53:56;;;;;;;0.00;0.00;;;2.50;99.90;;;;;;5012405;28;20227;-68
2023/01/04 03:56:23;;;;;;;0.00;0.00;;;2.50;99.90;;;;;;5011676;28;20186;-68
2023/01/04 03:58:50;;;;;;;0.00;0.00;;;2.50;99.90;;;;;;5012496;28;20277;-68
2023/01/04 04:01:18;;;;;;;0.00;0.00;;;2.50;99.90;;;;;;5015639;28;20225;-68
2023/01/04 04:09:12;;;;;;;0.00;0.00;;;2.50;99.90;;;;;;5008510;28;20272;-68
2023/01/04 04:11:37;;;;;;;0.00;0.00;;;2.60;99.90;;;;;;4991990;28;20239;-68
2023/01/04 04:14:03;;;;;;;0.20;0.20;;;2.60;99.90;;;;;;5006071;28;20262;-68
2023/01/04 04:16:29;;;;;;;0.00;0.00;;;2.60;99.90;;;;;;4991929;28;20280;-67
2023/01/04 04:18:54;;;;;;;0.03;0.03;;;2.70;99.90;;;;;;5004207;28;20316;-67
2023/01/04 04:21:20;;;;;;;0.00;0.00;;;2.70;99.90;;;;;;5012380;28;20183;-68
2023/01/04 04:23:46;;;;;;;0.00;0.00;;;2.70;99.90;;;;;;5012244;28;20214;-68
2023/01/04 04:26:11;;;;;;;0.00;0.00;;;2.70;99.90;;;;;;5012278;28;20209;-67
2023/01/04 04:28:38;;;;;;;0.00;0.00;;;2.70;99.90;;;;;;5012045;28;20207;-67
2023/01/04 04:31:04;;;;;;;0.00;0.00;;;2.80;99.90;;;;;;5011425;28;20198;-67
2023/01/04 04:33:30;;;;;;;0.25;0.22;;;2.80;99.90;;;;;;5012022;28;20179;-67
2023/01/04 04:35:55;;;;;;;0.00;0.00;;;2.80;99.90;;;;;;5011874;28;20206;-68
2023/01/04 04:38:21;;;;;;;0.00;0.00;;;2.80;99.90;;;;;;5011919;28;20217;-67
2023/01/04 04:43:33;;;;;;;0.00;0.00;;;2.80;99.90;;;;;;5011747;28;20198;-68
2023/01/04 04:45:59;;;;;;;0.03;0.03;;;2.80;99.90;;;;;;5012039;28;20529;-67
2023/01/04 04:48:24;;;;;;;0.00;0.00;;;2.80;99.90;;;;;;5012372;28;20179;-67
2023/01/04 04:50:50;;;;;;;0.00;0.00;;;2.80;99.90;;;;;;5011964;28;20211;-67
2023/01/04 04:53:15;;;;;;;0.00;0.00;;;2.90;99.90;;;;;;5011938;28;20265;-67
2023/01/04 04:55:41;;;;;;;0.30;0.30;;;2.90;99.90;;;;;;5011392;28;20286;-67
2023/01/04 04:58:07;;;;;;;0.90;0.35;;;2.90;99.90;;;;;;5012093;28;20218;-67
2023/01/04 05:00:32;;;;;;;0.00;0.00;;;3.00;99.90;;;;;;5011635;28;20202;-67
2023/01/04 05:02:58;;;;;;;0.00;0.00;;;3.00;99.90;;;;;;5012003;28;20248;-67
2023/01/04 05:05:24;;;;;;;0.10;0.10;;;3.00;99.90;;;;;;5011851;28;20275;-67
2023/01/04 05:07:49;;;;;;;0.30;0.30;;;3.00;99.90;;;;;;5011564;28;20261;-67
2023/01/04 05:10:15;;;;;;;0.00;0.00;;;3.00;99.90;;;;;;5011986;28;20195;-67
2023/01/04 05:12:59;;;;;;;0.00;0.00;;;3.00;99.90;;;;;;5011479;28;20183;-67
2023/01/04 05:15:47;;;;;;;0.47;0.43;;;3.00;99.90;;;;;;5011760;28;20186;-68
2023/01/04 05:18:15;;;;;;;0.00;0.00;;;3.00;99.90;;;;;;5012024;28;20221;-68
2023/01/04 05:20:42;;;;;;;0.00;0.00;;;3.00;99.90;;;;;;5010433;28;20174;-67
2023/01/04 05:23:11;;;;;;;0.20;0.20;;;3.10;99.90;;;;;;5011829;28;20660;-67
2023/01/04 05:25:36;;;;;;;0.05;0.05;;;3.10;99.90;;;;;;5011623;28;20183;-67
2023/01/04 05:28:02;;;;;;;0.22;0.22;;;3.10;99.90;;;;;;4994103;28;20245;-67
2023/01/04 05:33:11;;;;;;;0.00;0.00;;;3.20;99.90;;;;;;5011690;28;20225;-67
2023/01/04 05:35:37;;;;;;;0.00;0.00;;;3.20;99.90;;;;;;5011552;28;20175;-67
2023/01/04 05:38:03;;;;;;;0.00;0.00;;;3.20;99.90;;;;;;5010140;28;20211;-67
2023/01/04 05:40:29;;;;;;;0.00;0.00;;;3.20;99.90;;;;;;5004293;28;20196;-67
2023/01/04 05:42:54;;;;;;;0.00;0.00;;;3.30;99.90;;;;;;5006031;28;21079;-67
2023/01/04 05:45:20;;;;;;;0.00;0.00;;;3.30;99.90;;;;;;5011232;28;20179;-67
2023/01/04 05:47:50;;;;;;;0.00;0.00;;;3.30;99.90;;;;;;5011027;28;20673;-67
2023/01/04 05:50:16;;;;;;;0.00;0.00;;;3.40;99.90;;;;;;5011103;28;20183;-67
2023/01/04 05:52:42;;;;;;;0.00;0.00;;;3.40;99.90;;;;;;5010519;28;20238;-67
2023/01/04 05:55:07;;;;;;;0.35;0.35;;;3.40;99.90;;;;;;4993443;28;20268;-67
2023/01/04 05:57:33;;;;;;;0.00;0.00;;;3.50;99.90;;;;;;5011378;28;20215;-67
2023/01/04 05:59:58;;;;;;;0.13;0.13;;;3.50;99.90;;;;;;5011214;28;20206;-67
2023/01/04 06:02:27;;;;;;;0.00;0.00;;;3.60;99.90;;;;;;5011503;28;20630;-67
2023/01/04 06:04:53;;;;;;;0.00;0.00;;;3.60;99.90;;;;;;5003150;28;20189;-67
2023/01/04 06:07:18;;;;;;;0.10;0.10;;;3.60;99.90;;;;;;4996627;28;20175;-67
2023/01/04 06:09:44;;;;;;;0.93;0.85;;;3.60;99.90;;;;;;5014556;28;20175;-67
2023/01/04 06:12:10;;;;;;;0.00;0.00;;;3.70;99.90;;;;;;5000724;28;20270;-67
2023/01/04 06:14:35;;;;;;;0.00;0.00;;;3.80;99.90;;;;;;5011862;28;20182;-68
2023/01/04 06:17:01;;;;;;;0.17;0.17;;;3.80;99.90;;;;;;5014985;28;20697;-67
2023/01/04 06:19:26;;;;;;;0.00;0.00;;;3.80;99.90;;;;;;5015095;28;20183;-67
2023/01/04 06:21:52;;;;;;;0.05;0.05;;;3.80;99.90;;;;;;5014805;28;20179;-67
2023/01/04 06:24:18;;;;;;;0.10;0.10;;;3.80;99.90;;;;;;5014490;28;20322;-67
2023/01/04 06:26:45;;;;;;;0.00;0.00;;;3.90;99.90;;;;;;5014752;28;20206;-67
2023/01/04 06:29:10;;;;;;;0.00;0.00;;;3.90;99.90;;;;;;4995555;28;20184;-67
2023/01/04 06:31:36;;;;;;;0.00;0.00;;;3.90;99.90;;;;;;4987027;28;20182;-67
2023/01/04 06:34:02;;;;;;;0.00;0.00;;;3.90;99.90;;;;;;5014811;28;20560;-67
2023/01/04 06:36:27;;;;;;;0.00;0.00;;;4.00;99.90;;;;;;4996838;28;20181;-67
2023/01/04 06:38:55;;;;;;;0.22;0.22;;;4.00;99.90;;;;;;4996909;28;20214;-67
2023/01/04 06:41:21;;;;;;;0.00;0.00;;;4.00;99.90;;;;;;5014494;28;20250;-67
2023/01/04 06:43:48;;;;;;;0.00;0.00;;;4.00;99.90;;;;;;5014515;28;20736;-67
2023/01/04 06:46:13;;;;;;;0.00;0.00;;;4.00;99.90;;;;;;5014322;28;20179;-67
2023/01/04 06:48:39;;;;;;;0.00;0.00;;;4.00;99.90;;;;;;4996374;28;20266;-67
2023/01/04 06:51:04;;;;;;;0.00;0.00;;;4.00;99.90;;;;;;5014477;28;20233;-67
2023/01/04 06:53:30;;;;;;;0.00;0.00;;;4.00;99.90;;;;;;5013943;28;20227;-67
2023/01/04 06:55:55;;;;;;;0.00;0.00;;;4.00;99.90;;;;;;5014170;28;20187;-68
2023/01/04 06:58:21;;;;;;;0.05;0.05;;;4.00;99.90;;;;;;4996265;28;20219;-67
2023/01/04 07:00:46;;;;;;;0.10;0.10;;;4.10;99.90;;;;;;5014236;28;20167;-68
2023/01/04 07:03:12;;;;;;;0.20;0.20;;;4.10;99.90;;;;;;5013765;28;20202;-68
2023/01/04 07:05:38;;;;;;;0.20;0.20;;;4.20;99.90;;;;;;5012868;28;20179;-69
2023/01/04 07:08:04;;;;;;;0.00;0.00;;;4.20;99.90;;;;;;5014206;28;20214;-68
2023/01/04 07:10:29;;;;;;;0.00;0.00;;;4.20;99.90;;;;;;5013266;28;20171;-68
2023/01/04 07:12:55;;;;;;;0.00;0.00;;;4.20;99.90;;;;;;4998826;28;20206;-67
2023/01/04 07:15:21;;;;;;;0.00;0.00;;;4.20;99.90;;;;;;5009480;28;20187;-68
2023/01/04 07:17:48;;;;;;;0.43;0.32;;;4.20;99.90;;;;;;5008477;28;20214;-69
2023/01/04 07:20:13;;;;;;;0.00;0.00;;;4.20;99.90;;;;;;5012779;28;20171;-74
2023/01/04 07:22:39;;;;;;;0.00;0.00;;;4.20;99.90;;;;;;5013937;28;20194;-72
2023/01/04 07:25:04;;;;;;;0.28;0.28;;;4.20;99.90;;;;;;4995359;28;20190;-67
2023/01/04 07:27:30;;;;;;;0.20;0.20;;;4.20;99.90;;;;;;5013230;28;20175;-75
2023/01/04 07:29:56;;;;;;;0.05;0.05;;;4.20;99.90;;;;;;4995352;28;20664;-70
2023/01/04 07:32:21;;;;;;;0.00;0.00;;;4.20;99.90;;;;;;5013547;28;20190;-72
2023/01/04 07:34:47;;;;;;;0.00;0.00;;;4.30;99.90;;;;;;5012880;28;20194;-71
2023/01/04 07:37:14;;;;;;;0.00;0.00;;;4.30;99.90;;;;;;5013378;28;20278;-70
2023/01/04 07:39:39;;;;;;;0.00;0.00;;;4.40;99.90;;;;;;5012714;28;20179;-73
2023/01/04 07:42:05;;;;;;;0.00;0.00;;;4.40;99.90;;;;;;5012881;28;20190;-71
2023/01/04 07:44:30;;;;;;;0.00;0.00;;;4.40;99.90;;;;;;5012831;28;20663;-70
2023/01/04 07:46:56;;;;;;;0.10;0.10;;;4.40;99.90;;;;;;4995489;28;20225;-69
2023/01/04 07:49:22;;;;;;;0.00;0.00;;;4.40;99.90;;;;;;4995265;28;20175;-69
2023/01/04 07:51:48;;;;;;;0.10;0.10;;;4.50;99.90;;;;;;5013190;28;20634;-74
2023/01/04 07:54:15;;;;;;;0.10;0.10;;;4.50;99.90;;;;;;5012608;28;20769;-71
2023/01/04 07:56:41;;;;;;;1.02;0.90;;;4.50;99.90;;;;;;5008663;28;20183;-74
2023/01/04 07:59:08;;;;;;;0.05;0.05;;;4.50;99.90;;;;;;4980232;28;20187;-74
2023/01/04 08:01:37;;;;;;;0.10;0.10;;;4.50;99.90;;;;;;4978888;28;20548;-74
2023/01/04 08:04:03;;;;;;;0.00;0.00;;;4.50;99.90;;;;;;4994108;28;20186;-74
2023/01/04 08:06:29;;;;;;;0.00;0.00;;;4.50;99.90;;;;;;5013154;28;20178;-74
2023/01/04 08:08:54;;;;;;;0.00;0.00;;;4.60;99.90;;;;;;5013089;28;20174;-73
2023/01/04 08:11:21;;;;;;;0.20;0.20;;;4.70;99.90;;;;;;4995415;28;20193;-73
2023/01/04 08:13:47;;;;;;;0.00;0.00;;;4.70;99.90;;;;;;5011448;28;20172;-72
2023/01/04 08:16:33;;;;;;;0.00;0.00;;;4.70;99.90;;;;;;5013309;28;20182;-73
2023/01/04 08:19:02;;;;;;;0.00;0.00;;;4.80;99.90;;;;;;5012852;28;20215;-73
2023/01/04 08:21:30;;;;;;;0.10;0.10;;;4.80;99.90;;;;;;5013192;28;20177;-74
2023/01/04 08:23:55;;;;;;;0.20;0.20;;;4.90;99.90;;;;;;5012459;28;20818;-72
2023/01/04 08:26:21;;;;;;;0.00;0.00;;;4.90;99.90;;;;;;5012731;28;20207;-73
2023/01/04 08:28:48;;;;;;;0.00;0.00;;;5.00;99.90;;;;;;5011761;28;20310;-75
2023/01/04 08:31:16;;;;;;;0.00;0.00;;;5.10;99.90;;;;;;5012777;28;20171;-74
2023/01/04 08:33:42;;;;;;;0.00;0.00;;;5.10;99.90;;;;;;5011329;28;20537;-76
2023/01/04 08:36:15;;;;;;;0.10;0.10;;;5.20;99.90;;;;;;4994731;28;20194;-74
2023/01/04 08:38:41;;;;;;;0.00;0.00;;;5.20;99.90;;;;;;5012081;28;20276;-73
2023/01/04 08:41:06;;;;;;;0.08;0.08;;;5.30;99.90;;;;;;5012733;28;20179;-74
2023/01/04 08:43:32;;;;;;;0.10;0.10;;;5.30;99.90;;;;;;5011940;28;20178;-74
2023/01/04 08:45:57;;;;;;;0.05;0.05;;;5.40;99.90;;;;;;5012292;28;20677;-74
2023/01/04 08:48:23;;;;;;;0.00;0.00;;;5.50;99.90;;;;;;5011304;28;20186;-74
2023/01/04 08:50:48;;;;;;;0.00;0.00;;;5.60;99.90;;;;;;5011725;28;20650;-74
2023/01/04 08:53:14;;;;;;;0.00;0.00;;;5.70;99.90;;;;;;5011964;28;20227;-75
2023/01/04 08:55:40;;;;;;;0.00;0.00;;;5.80;99.90;;;;;;5010780;28;20657;-74
2023/01/04 08:58:06;;;;;;;0.00;0.00;;;5.90;99.90;;;;;;4979015;28;20207;-75
2023/01/04 09:00:32;;;;;;;0.00;0.00;;;5.90;99.90;;;;;;4992726;28;20179;-74
2023/01/04 09:02:57;;;;;;;0.00;0.00;;;6.00;99.90;;;;;;5003340;28;20608;-74
2023/01/04 09:05:24;;;;;;;0.10;0.10;;;6.10;99.90;;;;;;5003026;28;20213;-74
2023/01/04 09:07:50;;;;;;;0.10;0.10;;;6.10;99.90;;;;;;5012078;28;20187;-74
2023/01/04 09:10:16;;;;;;;0.03;0.03;;;6.20;99.90;;;;;;5011060;28;20175;-74
2023/01/04 09:12:41;;;;;;;0.57;0.57;;;6.20;99.90;;;;;;4992318;28;20179;-73
2023/01/04 09:15:07;;;;;;;0.60;0.17;;;6.20;99.90;;;;;;5008190;28;20274;-74
2023/01/04 09:17:33;;;;;;;0.00;0.00;;;6.20;99.90;;;;;;4994454;28;20627;-74
2023/01/04 09:19:58;;;;;;;0.30;0.30;;;6.20;99.90;;;;;;5010993;28;20183;-74
2023/01/04 09:22:24;;;;;;;0.00;0.00;;;6.20;99.90;;;;;;4994537;28;20175;-75
2023/01/04 09:24:50;;;;;;;0.00;0.00;;;6.20;99.90;;;;;;5011670;28;20178;-75
2023/01/04 09:27:15;;;;;;;0.45;0.45;;;6.20;99.90;;;;;;4994292;28;20179;-75
2023/01/04 09:29:41;;;;;;;0.00;0.00;;;6.30;99.90;;;;;;4994170;28;20269;-75
2023/01/04 09:32:06;;;;;;;0.52;0.10;;;6.30;99.90;;;;;;5012539;28;20178;-74
2023/01/04 09:34:32;;;;;;;0.22;0.22;;;6.30;99.90;;;;;;5011837;28;20175;-74
2023/01/04 09:36:57;;;;;;;0.10;0.10;;;6.40;99.90;;;;;;5011871;28;20174;-74
2023/01/04 09:39:25;;;;;;;0.17;0.17;;;6.40;99.90;;;;;;5011755;28;20720;-74
2023/01/04 09:41:59;;;;;;;0.00;0.00;;;6.40;99.90;;;;;;4998237;28;20182;-74
2023/01/04 09:44:52;;;;;;;0.10;0.10;;;6.40;99.90;;;;;;5009135;28;20669;-74
2023/01/04 09:47:38;;;;;;;0.22;0.22;;;6.40;99.90;;;;;;5007923;28;20183;-73
2023/01/04 09:50:06;;;;;;;0.10;0.10;;;6.50;99.90;;;;;;4997951;28;20225;-74
2023/01/04 09:52:59;;;;;;;0.03;0.03;;;6.50;99.90;;;;;;5015693;28;20186;-73
2023/01/04 09:55:27;;;;;;;0.00;0.00;;;6.50;99.90;;;;;;4996201;28;20236;-74
2023/01/04 09:57:59;;;;;;;0.00;0.00;;;6.60;99.90;;;;;;5015301;28;20214;-74
2023/01/04 10:00:33;;;;;;;0.10;0.10;;;6.60;99.90;;;;;;4997803;28;20533;-72
2023/01/04 10:03:24;;;;;;;0.00;0.00;;;6.60;99.90;;;;;;5014596;28;20557;-75
2023/01/04 10:05:52;;;;;;;0.00;0.00;;;6.60;99.90;;;;;;5015141;28;20191;-75
2023/01/04 10:08:19;;;;;;;0.00;0.00;;;6.60;99.90;;;;;;5015243;28;20190;-75
2023/01/04 10:11:26;;;;;;;0.05;0.05;;;6.70;99.90;;;;;;5014702;28;20175;-75
2023/01/04 10:14:12;;;;;;;0.22;0.22;;;6.70;99.90;;;;;;4994090;28;20229;-74
2023/01/04 10:16:58;;;;;;;0.00;0.00;;;6.70;99.90;;;;;;4997017;28;20237;-74
2023/01/04 10:20:01;;;;;;;0.05;0.05;;;6.80;99.90;;;;;;5010966;28;20190;-76
2023/01/04 10:22:52;;;;;;;0.00;0.00;;;6.80;99.90;;;;;;4998040;28;20597;-75
2023/01/04 10:25:31;;;;;;;0.35;0.20;;;6.80;99.90;;;;;;5011975;28;20534;-75
2023/01/04 10:28:11;;;;;;;0.00;0.00;;;6.80;99.90;;;;;;5004930;28;20191;-72
2023/01/04 10:30:40;;;;;;;0.00;0.00;;;6.90;99.90;;;;;;5006856;28;20182;-73
2023/01/04 10:33:25;;;;;;;0.00;0.00;;;6.90;99.90;;;;;;5010131;28;20541;-74
2023/01/04 10:35:51;;;;;;;0.00;0.00;;;6.90;99.90;;;;;;4997097;28;20646;-73
2023/01/04 10:38:22;;;;;;;0.00;0.00;;;6.90;99.90;;;;;;5014649;28;20210;-74
2023/01/04 10:40:49;;;;;;;0.00;0.00;;;7.00;99.90;;;;;;5014514;28;20175;-74
2023/01/04 10:43:40;;;;;;;0.00;0.00;;;7.10;99.90;;;;;;5014620;28;20218;-74
2023/01/04 10:46:37;;;;;;;0.00;0.00;;;7.20;99.90;;;;;;5014201;28;20171;-73
2023/01/04 10:49:28;;;;;;;0.00;0.00;;;7.30;99.90;;;;;;5014035;28;20171;-74
2023/01/04 10:52:01;;;;;;;0.00;0.00;;;7.60;99.90;;;;;;5013234;28;20651;-73
2023/01/04 10:54:46;;;;;;;0.00;0.00;;;7.80;99.90;;;;;;5012723;28;20234;-72
2023/01/04 10:57:35;;;;;;;0.00;0.00;;;8.20;99.90;;;;;;5004439;28;20238;-73
2023/01/04 11:00:10;;;;;;;0.00;0.00;;;8.40;99.90;;;;;;5012916;28;20198;-74
2023/01/04 11:02:38;;;;;;;0.00;0.00;;;8.70;99.90;;;;;;5014285;28;20174;-73
2023/01/04 11:05:22;;;;;;;0.00;0.00;;;8.90;99.90;;;;;;5014051;28;20175;-73
2023/01/04 11:07:54;;;;;;;0.03;0.03;;;9.20;99.90;;;;;;5014059;28;20277;-77
2023/01/04 11:10:25;;;;;;;0.00;0.00;;;9.30;99.90;;;;;;5013285;28;20202;-73
2023/01/04 11:12:51;;;;;;;0.00;0.00;;;9.50;99.90;;;;;;5012756;28;20206;-74
2023/01/04 11:15:17;;;;;;;0.00;0.00;;;9.60;99.90;;;;;;5013585;28;20232;-74
2023/01/04 11:17:44;;;;;;;0.00;0.00;;;9.70;99.90;;;;;;5012993;28;20202;-74
2023/01/04 11:20:10;;;;;;;0.00;0.00;;;9.70;99.90;;;;;;5013336;28;20182;-74
2023/01/04 11:22:42;;;;;;;0.00;0.00;;;9.80;99.90;;;;;;5013814;28;20185;-74
2023/01/04 11:25:14;;;;;;;0.00;0.00;;;9.80;99.90;;;;;;5013798;28;20175;-74
2023/01/04 11:27:48;;;;;;;0.00;0.00;;;9.80;99.90;;;;;;4996265;28;20638;-73
2023/01/04 11:30:18;;;;;;;0.10;0.10;;;9.80;99.90;;;;;;4995539;28;20229;-66
2023/01/04 11:33:04;;;;;;;0.00;0.00;;;9.80;99.90;;;;;;5011934;28;20171;-64
2023/01/04 11:35:43;;;;;;;0.00;0.00;;;9.80;99.90;;;;;;5009560;28;20202;-65
2023/01/04 11:38:17;;;;;;;0.00;0.00;;;9.90;99.90;;;;;;5022818;28;20221;-65
2023/01/04 11:41:05;;;;;;;0.00;0.00;;;9.90;99.90;;;;;;5005154;28;20646;-65
2023/01/04 11:43:33;;;;;;;0.00;0.00;;;9.90;99.90;;;;;;4994028;28;20176;-65
2023/01/04 11:46:16;;;;;;;0.00;0.00;;;9.90;99.90;;;;;;5015556;28;20194;-64
2023/01/04 11:48:44;;;;;;;0.00;0.00;;;9.90;99.90;;;;;;5023559;28;20179;-64
2023/01/04 11:51:18;;;;;;;0.00;0.00;;;9.90;99.90;;;;;;5011586;28;20273;-64
2023/01/04 11:53:43;;;;;;;0.00;0.00;;;9.90;99.90;;;;;;5012476;28;20322;-65
2023/01/04 11:56:14;;;;;;;0.00;0.00;;;9.90;99.90;;;;;;5012572;28;20262;-65
2023/01/04 11:58:41;;;;;;;0.00;0.00;;;9.90;99.90;;;;;;5012777;28;20588;-65
2023/01/04 12:01:22;;;;;;;0.00;0.00;;;9.90;99.90;;;;;;5012494;28;20656;-64
2023/01/04 12:03:48;;;;;;;0.00;0.00;;;9.90;99.90;;;;;;5011435;28;20693;-64
2023/01/04 12:06:26;;;;;;;0.00;0.00;;;9.90;99.90;;;;;;5013094;28;20253;-64
2023/01/04 12:08:51;;;;;;;0.00;0.00;;;9.90;99.90;;;;;;5012619;28;20182;-64
2023/01/04 12:11:29;;;;;;;0.00;0.00;;;9.90;99.90;;;;;;4994457;28;20201;-65
2023/01/04 12:13:59;;;;;;;0.00;0.00;;;9.90;99.90;;;;;;5011757;28;20271;-65
2023/01/04 12:17:04;;;;;;;0.00;0.00;;;9.90;99.90;;;;;;5012730;28;20197;-69
2023/01/04 12:19:30;;;;;;;0.00;0.00;;;9.90;99.90;;;;;;4950900;29;20550;-67
2023/01/04 12:21:58;;;;;;;0.00;0.00;;;10.00;99.90;;;;;;4999674;28;20198;-67
2023/01/04 12:24:27;;;;;;;0.00;0.00;;;10.00;99.90;;;;;;5012125;28;20684;-66
2023/01/04 12:26:53;;;;;;;0.00;0.00;;;10.00;99.90;;;;;;5011890;28;20779;-67
2023/01/04 12:29:21;;;;;;;0.00;0.00;;;10.00;99.90;;;;;;5006265;28;20199;-67
2023/01/04 12:32:04;;;;;;;0.00;0.00;;;10.00;99.90;;;;;;5008041;28;20183;-66
2023/01/04 12:34:29;;;;;;;0.00;0.00;;;10.00;99.90;;;;;;4992905;28;20205;-66
2023/01/04 12:37:00;;;;;;;0.00;0.00;;;10.00;99.90;;;;;;5012483;28;20171;-65
2023/01/04 12:39:37;;;;;;;0.00;0.00;;;10.00;99.90;;;;;;4998765;28;20175;-66
2023/01/04 12:42:06;;;;;;;0.00;0.00;;;10.10;99.90;;;;;;4994184;28;20186;-66
2023/01/04 12:44:37;;;;;;;0.00;0.00;;;10.10;99.90;;;;;;4975424;28;20651;-66
2023/01/04 12:50:11;;;;;;;0.00;0.00;;;10.10;99.90;;;;;;4994827;28;20234;-65
2023/01/04 12:52:50;;;;;;;0.00;0.00;;;10.10;99.90;;;;;;5011637;28;20174;-66
2023/01/04 12:55:24;;;;;;;0.00;0.00;;;10.10;99.90;;;;;;5011931;28;20197;-66
2023/01/04 12:57:50;;;;;;;0.00;0.00;;;10.20;99.90;;;;;;5011831;28;20284;-65
2023/01/04 13:00:16;;;;;;;0.00;0.00;;;10.20;99.90;;;;;;5007949;28;20221;-65
2023/01/04 13:02:50;;;;;;;0.00;0.00;;;10.20;99.90;;;;;;5012160;28;20186;-66
2023/01/04 13:05:16;;;;;;;0.00;0.00;;;10.30;99.90;;;;;;5011868;28;20270;-66
2023/01/04 13:07:58;;;;;;;0.00;0.00;;;10.30;99.90;;;;;;5008475;28;20266;-66
2023/01/04 13:10:39;;;;;;;0.00;0.00;;;10.40;99.90;;;;;;4992627;28;20167;-66
2023/01/04 13:13:16;;;;;;;0.03;0.03;;;10.40;99.90;;;;;;5001348;28;20645;-66
2023/01/04 13:15:57;;;;;;;0.00;0.00;;;10.50;99.90;;;;;;5011735;28;20178;-66
2023/01/04 13:18:46;;;;;;;0.13;0.10;;;10.50;99.90;;;;;;5012137;28;20297;-66
2023/01/04 13:21:14;;;;;;;0.00;0.00;;;10.50;99.90;;;;;;5004263;28;20197;-66
2023/01/04 13:23:45;;;;;;;0.00;0.00;;;10.50;99.90;;;;;;5008552;28;20183;-65
2023/01/04 13:26:40;;;;;;;0.00;0.00;;;10.50;99.90;;;;;;5012083;28;20210;-65
2023/01/04 13:29:07;;;;;;;0.00;0.00;;;10.60;99.90;;;;;;5012110;28;20186;-65
2023/01/04 13:32:01;;;;;;;0.00;0.00;;;10.60;99.90;;;;;;5011790;28;20536;-65
2023/01/04 13:34:36;;;;;;;0.00;0.00;;;10.60;99.90;;;;;;5011929;28;20645;-65
2023/01/04 13:37:11;;;;;;;0.00;0.00;;;10.60;99.90;;;;;;5011850;28;20174;-66
2023/01/04 13:39:46;;;;;;;0.00;0.00;;;10.60;99.90;;;;;;5011909;28;20174;-65
2023/01/04 13:42:25;;;;;;;0.00;0.00;;;10.70;99.90;;;;;;5011896;28;20178;-65
2023/01/04 13:45:04;;;;;;;0.00;0.00;;;10.70;99.90;;;;;;5011672;28;20187;-66
2023/01/04 13:47:35;;;;;;;0.00;0.00;;;10.70;99.90;;;;;;5011938;28;20171;-66
2023/01/04 13:50:01;;;;;;;0.00;0.00;;;10.70;99.90;;;;;;5011905;28;20548;-66
2023/01/04 13:52:28;;;;;;;0.00;0.00;;;10.70;99.90;;;;;;5011891;28;20202;-66
2023/01/04 13:55:19;;;;;;;0.00;0.00;;;10.70;99.90;;;;;;5011536;28;20230;-66
2023/01/04 13:58:21;;;;;;;0.00;0.00;;;10.70;99.90;;;;;;5011612;28;20225;-66
2023/01/04 14:00:59;;;;;;;0.00;0.00;;;10.70;99.90;;;;;;5010235;28;20195;-67